Bratsk Airport
UIBB : now visible

Airfield :











YOU CAN JOIN US ON...

 
LOGIN :

Register | Disclaimer

   EN    FR    IT 

 









Legend :    VFR   Marginal VFR   IFR   Intensive IFR   Very Intensive IFR
Visi :
Ceiling :
>= 8 km
>= 3000ft
5 to 8 km
1000 to 3000 ft
1500m to 5 km
500 to 1000 ft
800 to 1500m
200 to 500 ft
< 800m
< 200 ft
Symbols :   Thunderstorms  Fog  Heavy snow  Heavy precipitations  Wind > 20 kt






- Airport Elevation : 1610 ft
- IATA code : BTK


UIBB - Bratsk

CURRENT METAR :
  • 270030Z 28005MPS 240V310 9000 -SHRA BKN011CB 09/08 Q0994 R30/290150 NOSIG RMK MT OBSC QFE703/0938

EXPIRED METARs :
  • 270000Z 30005MPS 270V330 9000 -SHRA BKN011CB 09/08 Q0992 R30/290150 NOSIG RMK MT OBSC QFE702/0936
  • 262330Z 31006MPS 280V340 9999 BKN011CB 09/08 Q0992 R30/290150 NOSIG RMK MT OBSC QFE702/0936
  • 262300Z 32006MPS 290V360 9999 BKN010CB 09/08 Q0991 R30/290150 NOSIG RMK MT OBSC QFE701/0935
  • 262230Z 27009G14MPS 230V310 6000 -SHRA BKN010CB 11/10 Q0990 R30/CLRD60 NOSIG RMK MT OBSC QFE701/0935
  • 262200Z 24007MPS 210V280 9999 BKN012CB 12/10 Q0989 R30/60D NOSIG RMK MT OBSC QFE700/0934

TAF TAF UIBB
Valid from the 27 at 00:00 until the 28 at 00:00 UTC


262300Z 2700/2724 32007G16MPS 9999 -SHRA BKN011CB
UIII FIR / Asia



MET'MAP, your aeronautical weather chart ! - Copyright ORBIFLY December 2007 - Disclaimer

ORBIFLY MET'MAP TEAM :

Programming & Development : Alexandra Zaïnal
Concept & original design : Baudouin d'Aumeries
Assistance for programming : Marc-Olivier Méhu
Technical & hardware support : Manuel Goepfert

Contact : metmap@orbifly.com




SOURCES & CREDITS :

   NOAA       Earth
Advisory